createdAt,value
2022-09-30T00:01:07.155Z,17.80
2022-09-30T00:03:33.125Z,17.79
2022-09-30T00:05:59.063Z,17.72
2022-09-30T00:08:25.020Z,17.61
2022-09-30T00:10:51.679Z,17.63
2022-09-30T00:13:17.650Z,17.64
2022-09-30T00:15:43.609Z,17.61
2022-09-30T00:18:09.564Z,17.63
2022-09-30T00:20:35.486Z,17.60
2022-09-30T00:23:01.462Z,17.66
2022-09-30T00:25:27.456Z,17.68
2022-09-30T00:27:54.359Z,17.74
2022-09-30T00:30:20.341Z,17.78
2022-09-30T00:32:46.262Z,17.71
2022-09-30T00:35:13.032Z,17.65
2022-09-30T00:37:39.596Z,17.70
2022-09-30T00:40:05.588Z,17.76
2022-09-30T00:42:32.397Z,17.78
2022-09-30T00:44:58.334Z,17.72
2022-09-30T00:47:24.309Z,17.69
2022-09-30T00:49:50.255Z,17.58
2022-09-30T00:52:16.216Z,17.60
2022-09-30T00:54:42.188Z,17.48
2022-09-30T00:57:08.777Z,17.55
2022-09-30T00:59:34.788Z,17.54
2022-09-30T01:02:00.762Z,17.61
2022-09-30T01:04:26.772Z,17.61
2022-09-30T01:06:52.726Z,17.61
2022-09-30T01:09:19.740Z,17.59
2022-09-30T01:11:45.858Z,17.65
2022-09-30T01:14:11.868Z,17.69
2022-09-30T01:16:37.896Z,17.72
2022-09-30T01:19:04.842Z,17.73
2022-09-30T01:21:30.821Z,17.72
2022-09-30T01:23:56.788Z,17.74
2022-09-30T01:26:23.520Z,17.74
2022-09-30T01:28:50.400Z,17.74
2022-09-30T01:31:16.393Z,17.76
2022-09-30T01:33:42.676Z,17.72
2022-09-30T01:36:08.911Z,17.63
2022-09-30T01:38:35.163Z,17.56
2022-09-30T01:41:01.451Z,17.63
2022-09-30T01:43:27.715Z,17.61
2022-09-30T01:45:55.440Z,17.58
2022-09-30T01:48:21.734Z,17.59
2022-09-30T01:50:47.888Z,17.61
2022-09-30T03:50:15.822Z,17.01
2022-09-30T03:52:41.779Z,16.98
2022-09-30T03:55:08.483Z,16.97
2022-09-30T03:57:34.464Z,16.98
2022-09-30T04:00:00.432Z,17.04
2022-09-30T04:02:26.463Z,17.05
2022-09-30T04:04:53.157Z,17.09
2022-09-30T04:07:19.131Z,17.02
2022-09-30T04:09:45.843Z,16.85
2022-09-30T04:12:11.895Z,17.01
2022-09-30T04:14:37.859Z,17.00
2022-09-30T04:17:03.822Z,17.02
2022-09-30T04:19:30.491Z,16.94
2022-09-30T04:21:56.681Z,17.00
2022-09-30T04:24:23.382Z,16.98
2022-09-30T04:26:49.307Z,16.87
2022-09-30T04:29:16.123Z,16.96
2022-09-30T04:31:42.123Z,17.01
2022-09-30T04:34:08.126Z,17.01
2022-09-30T04:36:34.829Z,17.09
2022-09-30T04:39:00.801Z,16.97
2022-09-30T04:41:26.779Z,16.98
2022-09-30T04:43:52.738Z,16.94
2022-09-30T04:46:18.675Z,16.90
2022-09-30T04:48:45.577Z,16.97
2022-09-30T04:51:11.552Z,16.96
2022-09-30T04:53:37.519Z,16.79
2022-09-30T04:56:03.503Z,16.77
2022-09-30T04:58:33.351Z,16.63
2022-09-30T05:01:00.760Z,16.51
2022-09-30T05:03:26.727Z,16.57
2022-09-30T05:05:52.655Z,16.80
2022-09-30T05:08:18.671Z,16.90
2022-09-30T05:10:44.595Z,16.96
2022-09-30T05:13:10.560Z,17.00
2022-09-30T05:15:37.205Z,17.03
2022-09-30T05:18:03.401Z,17.02
2022-09-30T05:20:29.345Z,17.00
2022-09-30T05:22:56.183Z,17.06
2022-09-30T05:25:22.114Z,17.08
2022-09-30T05:27:48.963Z,17.19
2022-09-30T05:30:14.959Z,17.25
2022-09-30T05:32:40.931Z,17.28
2022-09-30T05:35:06.874Z,17.31
2022-09-30T05:37:32.839Z,17.33
2022-09-30T05:39:58.799Z,17.23
2022-09-30T05:42:24.750Z,17.28
2022-09-30T05:44:51.474Z,17.27
2022-09-30T05:47:17.461Z,17.30
2022-09-30T05:49:43.996Z,17.37
2022-09-30T05:52:09.974Z,17.38
2022-09-30T05:54:35.965Z,17.39
2022-09-30T05:57:01.933Z,17.45
2022-09-30T05:59:28.644Z,17.46
2022-09-30T06:01:54.754Z,17.55
2022-09-30T06:04:20.763Z,17.53
2022-09-30T06:06:46.732Z,17.48
2022-09-30T06:09:13.523Z,17.46
2022-09-30T06:11:39.509Z,17.50
2022-09-30T06:14:05.493Z,17.69
2022-09-30T06:16:31.465Z,17.73
2022-09-30T06:18:57.627Z,17.83
2022-09-30T06:21:24.435Z,17.79
2022-09-30T06:23:50.388Z,17.85
2022-09-30T06:26:16.837Z,17.88
2022-09-30T06:28:43.065Z,17.93
2022-09-30T06:31:09.111Z,17.99
2022-09-30T06:38:57.412Z,17.96
2022-09-30T06:41:23.494Z,18.02
2022-09-30T08:59:02.296Z,19.57
2022-09-30T09:06:53.091Z,19.15
2022-09-30T09:09:19.385Z,19.01
2022-09-30T09:11:46.044Z,19.13
2022-09-30T09:14:13.301Z,19.64
2022-09-30T09:16:39.538Z,20.34
2022-09-30T09:19:05.775Z,20.69
2022-09-30T09:21:32.307Z,20.99
2022-09-30T09:24:01.566Z,21.10
2022-09-30T09:26:27.613Z,20.40
2022-09-30T09:28:53.922Z,20.17
2022-09-30T09:31:20.039Z,19.94
2022-09-30T09:33:47.151Z,20.09
2022-09-30T09:36:13.170Z,20.72
2022-09-30T09:38:39.191Z,20.79
2022-09-30T09:41:06.544Z,21.11
2022-09-30T09:43:33.343Z,21.34
2022-09-30T09:45:59.455Z,21.45
2022-09-30T09:48:26.171Z,21.45
2022-09-30T09:50:52.193Z,21.36
2022-09-30T09:53:18.248Z,21.22
2022-09-30T09:55:46.019Z,21.36
2022-09-30T09:58:12.043Z,21.29
2022-09-30T10:00:38.966Z,21.27
2022-09-30T10:03:05.007Z,21.43
2022-09-30T10:05:33.585Z,20.41
2022-09-30T10:08:00.310Z,20.54
2022-09-30T10:10:26.354Z,20.55
2022-09-30T10:12:52.569Z,21.35
2022-09-30T10:15:20.092Z,21.34
2022-09-30T10:17:46.169Z,21.58
2022-09-30T10:20:12.155Z,21.67
2022-09-30T10:22:39.107Z,21.97
2022-09-30T10:25:05.093Z,21.43
2022-09-30T10:27:31.722Z,21.17
2022-09-30T10:29:57.781Z,20.96
2022-09-30T10:32:23.769Z,21.00
2022-09-30T10:34:49.773Z,20.26
2022-09-30T10:37:15.808Z,20.19
2022-09-30T10:39:42.590Z,20.57
2022-09-30T10:42:12.778Z,20.94
2022-09-30T10:44:38.934Z,20.67
2022-09-30T10:47:05.783Z,20.26
2022-09-30T10:49:31.865Z,20.40
2022-09-30T10:51:57.841Z,20.97
2022-09-30T10:54:23.873Z,21.43
2022-09-30T10:56:51.312Z,20.64
2022-09-30T10:59:17.345Z,20.09
2022-09-30T11:01:43.529Z,20.12
2022-09-30T11:04:10.475Z,20.43
2022-09-30T11:06:36.486Z,20.60
2022-09-30T11:09:02.527Z,20.98
2022-09-30T11:11:28.574Z,20.69
2022-09-30T11:13:56.889Z,20.99
2022-09-30T11:16:22.972Z,20.51
2022-09-30T11:18:48.991Z,20.58
2022-09-30T11:21:15.020Z,20.41
2022-09-30T11:23:41.681Z,20.18
2022-09-30T11:26:07.699Z,20.12
2022-09-30T11:28:34.461Z,20.23
2022-09-30T11:31:03.763Z,20.39
2022-09-30T11:33:32.802Z,20.00
2022-09-30T11:35:58.800Z,20.28
2022-09-30T11:38:24.795Z,20.46
2022-09-30T11:43:32.393Z,20.36
2022-09-30T11:46:02.756Z,20.34
2022-09-30T11:48:32.822Z,20.53
2022-09-30T11:50:59.177Z,20.75
2022-09-30T11:53:25.234Z,20.90
2022-09-30T14:06:02.277Z,21.12
2022-09-30T14:08:29.099Z,20.98
2022-09-30T14:10:55.115Z,20.76
2022-09-30T14:13:21.166Z,20.69
2022-09-30T14:15:47.206Z,20.79
2022-09-30T14:18:14.356Z,20.47
2022-09-30T14:20:40.368Z,20.05
2022-09-30T14:23:06.450Z,19.76
2022-09-30T14:25:32.421Z,19.61
2022-09-30T14:27:58.509Z,19.74
2022-09-30T14:30:24.535Z,19.78
2022-09-30T14:32:50.535Z,20.04
2022-09-30T14:35:17.285Z,20.15
2022-09-30T14:37:44.175Z,20.05
2022-09-30T14:40:10.176Z,19.76
2022-09-30T14:42:36.157Z,19.84
2022-09-30T14:45:02.244Z,20.40
2022-09-30T14:47:28.247Z,20.65
2022-09-30T14:49:55.218Z,20.75
2022-09-30T14:52:21.227Z,21.06
2022-09-30T14:54:47.215Z,20.94
2022-09-30T14:57:13.200Z,20.95
2022-09-30T14:59:42.107Z,20.69
2022-09-30T15:02:10.567Z,20.68
2022-09-30T15:04:36.642Z,20.58
2022-09-30T15:09:47.621Z,20.76
2022-09-30T15:12:13.668Z,20.63
2022-09-30T15:14:39.640Z,20.54
2022-09-30T15:17:06.405Z,20.50
2022-09-30T15:19:32.508Z,20.54
2022-09-30T15:21:58.491Z,20.36
2022-09-30T15:24:24.701Z,20.48
2022-09-30T15:26:50.718Z,20.44
2022-09-30T15:29:16.709Z,20.60
2022-09-30T15:31:43.546Z,20.88
2022-09-30T15:34:09.891Z,20.92
2022-09-30T15:36:35.944Z,20.63
2022-09-30T15:39:01.947Z,20.60
2022-09-30T15:41:28.862Z,20.66
2022-09-30T15:43:54.813Z,20.46
2022-09-30T15:46:20.868Z,20.58
2022-09-30T15:48:47.592Z,20.52
2022-09-30T15:51:13.780Z,20.62
2022-09-30T15:53:39.777Z,20.89
2022-09-30T15:56:05.751Z,20.79
2022-09-30T15:58:32.623Z,20.77
2022-09-30T16:00:59.446Z,20.85
2022-09-30T16:03:25.561Z,20.96
2022-09-30T16:05:53.988Z,20.97
2022-09-30T16:08:20.260Z,21.02
2022-09-30T16:10:46.243Z,20.78
2022-09-30T16:13:13.008Z,20.93
2022-09-30T16:15:39.005Z,21.09
2022-09-30T16:18:05.055Z,21.08
2022-09-30T16:25:55.824Z,21.06
2022-09-30T16:28:21.897Z,21.05
2022-09-30T16:30:48.131Z,21.03
2022-09-30T18:01:00.703Z,20.50
2022-09-30T18:03:26.734Z,20.48
2022-09-30T18:05:52.710Z,20.50
2022-09-30T18:08:19.230Z,20.37
2022-09-30T18:10:45.214Z,20.10
2022-09-30T18:13:11.198Z,19.58
2022-09-30T18:15:37.801Z,19.51
2022-09-30T18:18:03.776Z,19.72
2022-09-30T18:20:29.726Z,19.96
2022-09-30T18:22:56.627Z,20.09
2022-09-30T18:25:23.480Z,20.16
2022-09-30T18:27:49.700Z,19.96
2022-09-30T18:30:16.746Z,19.82
2022-09-30T18:32:42.761Z,19.81
2022-09-30T18:35:08.782Z,19.54
2022-09-30T18:37:35.722Z,19.49
2022-09-30T18:40:01.742Z,19.69
2022-09-30T18:42:27.765Z,19.88
2022-09-30T18:44:53.706Z,20.04
2022-09-30T18:47:20.512Z,20.13
2022-09-30T18:49:46.531Z,20.12
2022-09-30T18:52:15.248Z,20.18
2022-09-30T18:54:41.435Z,20.23
2022-09-30T18:57:08.199Z,20.32
2022-09-30T18:59:34.187Z,20.36
2022-09-30T19:02:00.597Z,20.11
2022-09-30T19:04:26.664Z,19.92
2022-09-30T19:06:52.665Z,20.01
2022-09-30T19:09:18.658Z,20.08
2022-09-30T19:11:44.673Z,20.12
2022-09-30T19:14:10.639Z,20.22
2022-09-30T19:16:38.805Z,20.27
2022-09-30T19:19:05.178Z,20.37
2022-09-30T19:21:31.432Z,20.44
2022-09-30T19:23:57.579Z,20.47
2022-09-30T19:26:23.566Z,20.48
2022-09-30T19:28:49.570Z,20.49
2022-09-30T19:31:15.646Z,20.52
2022-09-30T19:33:54.011Z,20.55
2022-09-30T19:36:21.648Z,20.50
2022-09-30T19:38:47.837Z,20.50
2022-09-30T19:41:13.860Z,20.37
2022-09-30T19:43:39.824Z,20.29
2022-09-30T19:46:06.767Z,20.35
2022-09-30T19:48:32.820Z,20.43
2022-09-30T19:50:58.796Z,20.42
2022-09-30T19:53:30.494Z,20.09
2022-09-30T19:58:40.862Z,20.25
2022-09-30T20:01:07.659Z,20.29
2022-09-30T20:03:33.707Z,20.34
2022-09-30T20:05:59.888Z,20.36
2022-09-30T20:08:25.930Z,20.39
2022-09-30T20:10:51.923Z,20.19
2022-09-30T20:13:18.071Z,20.13
2022-09-30T20:15:46.341Z,20.06
2022-09-30T20:18:12.502Z,20.10
2022-09-30T20:20:38.491Z,20.08
2022-09-30T20:23:05.213Z,20.10
2022-09-30T20:25:31.204Z,20.18
2022-09-30T20:27:57.227Z,20.25
2022-09-30T20:30:23.233Z,20.31
2022-09-30T20:32:49.252Z,20.35
2022-09-30T20:35:15.931Z,20.33
2022-09-30T20:37:41.921Z,20.27
2022-09-30T20:40:08.650Z,20.08
2022-09-30T20:42:34.603Z,20.19
2022-09-30T20:45:00.619Z,20.15
2022-09-30T20:47:26.587Z,20.17
2022-09-30T21:00:35.876Z,19.96
2022-09-30T21:03:01.996Z,19.95
2022-09-30T23:13:34.875Z,19.84
2022-09-30T23:16:00.870Z,19.87
2022-09-30T23:23:40.744Z,19.83
2022-09-30T23:26:07.361Z,19.89
2022-09-30T23:28:33.345Z,19.94
2022-09-30T23:30:59.342Z,19.89
2022-09-30T23:33:26.263Z,19.95
2022-09-30T23:35:52.297Z,19.91
2022-09-30T23:38:18.279Z,20.00
2022-09-30T23:40:44.274Z,19.98
2022-09-30T23:43:10.236Z,20.00
2022-09-30T23:45:36.269Z,20.05
2022-09-30T23:48:03.023Z,20.03
2022-09-30T23:50:29.027Z,20.07
2022-09-30T23:52:55.006Z,20.12
2022-09-30T23:55:21.411Z,20.13
2022-09-30T23:57:47.441Z,20.07
